Time;durP1;ratioP1;P1;durP2;ratioP2;P2;SDS_P1;SDS_P2;PMS_P1;PMS_P2;Temp;Humidity;BMP_temperature;BMP_pressure;BME280_temperature;BME280_humidity;BME280_pressure;Samples;Min_cycle;Max_cycle;Signal;HPM_P1;HPM_P2
2022/09/28 00:02:04;;;;;;;8.68;6.20;;;12.20;99.90;;;;;;4986876;28;20042;-81
2022/09/28 00:04:33;;;;;;;11.20;6.40;;;12.20;99.90;;;;;;4988810;28;20126;-82
2022/09/28 00:06:59;;;;;;;9.15;6.13;;;12.20;99.90;;;;;;4978360;28;20106;-82
2022/09/28 00:09:26;;;;;;;9.45;6.57;;;12.20;99.90;;;;;;5034610;22;20410;-79
2022/09/28 00:11:56;;;;;;;9.95;5.68;;;12.20;99.90;;;;;;5016310;28;20088;-79
2022/09/28 00:14:24;;;;;;;5.88;4.45;;;12.10;99.90;;;;;;5012440;28;20042;-79
2022/09/28 00:16:51;;;;;;;9.70;5.05;;;12.10;99.90;;;;;;5012652;28;20046;-79
2022/09/28 00:19:17;;;;;;;8.25;5.45;;;12.20;99.90;;;;;;5019869;28;20053;-79
2022/09/28 00:21:46;;;;;;;9.00;5.30;;;12.10;99.90;;;;;;5019041;28;20038;-79
2022/09/28 00:24:17;;;;;;;8.55;5.85;;;12.10;99.90;;;;;;5012364;28;20048;-79
2022/09/28 00:26:47;;;;;;;7.47;5.28;;;12.10;99.90;;;;;;5011112;28;20049;-79
2022/09/28 00:29:17;;;;;;;7.82;5.47;;;12.00;99.90;;;;;;5019393;28;20077;-79
2022/09/28 00:31:44;;;;;;;8.02;5.50;;;12.10;99.90;;;;;;5019350;28;20072;-79
2022/09/28 00:34:11;;;;;;;10.50;5.60;;;12.10;99.90;;;;;;5010886;28;20056;-79
2022/09/28 00:36:38;;;;;;;10.38;5.80;;;12.10;99.90;;;;;;5011305;28;20057;-79
2022/09/28 00:39:07;;;;;;;10.10;6.63;;;12.00;99.90;;;;;;5022975;28;20498;-79
2022/09/28 00:41:35;;;;;;;10.90;6.55;;;12.00;99.90;;;;;;5020074;28;20441;-79
2022/09/28 00:44:35;;;;;;;12.55;6.47;;;12.00;99.90;;;;;;5012124;28;20038;-79
2022/09/28 00:47:13;;;;;;;11.32;6.40;;;12.00;99.90;;;;;;5010137;28;20050;-78
2022/09/28 00:49:43;;;;;;;10.65;6.20;;;12.00;99.90;;;;;;5014457;28;20107;-79
2022/09/28 00:52:13;;;;;;;13.65;7.30;;;12.00;99.90;;;;;;5022193;28;20085;-79
2022/09/28 00:54:43;;;;;;;14.30;7.37;;;12.00;99.90;;;;;;5014135;28;20038;-79
2022/09/28 00:57:11;;;;;;;11.02;7.82;;;12.00;99.90;;;;;;5011679;28;20297;-79
2022/09/28 00:59:38;;;;;;;11.68;7.40;;;12.00;99.90;;;;;;5012558;28;20087;-79
2022/09/28 01:02:04;;;;;;;10.88;7.57;;;12.00;99.90;;;;;;5019510;28;20045;-79
2022/09/28 01:04:31;;;;;;;11.88;8.35;;;12.00;99.90;;;;;;5030634;28;20056;-79
2022/09/28 01:06:59;;;;;;;11.82;7.53;;;12.00;99.90;;;;;;5013477;28;20048;-79
2022/09/28 01:09:27;;;;;;;11.82;7.57;;;12.00;99.90;;;;;;5016676;28;20042;-79
2022/09/28 01:11:56;;;;;;;14.13;7.57;;;12.00;99.90;;;;;;5023027;28;20041;-79
2022/09/28 01:14:24;;;;;;;13.23;8.07;;;12.00;99.90;;;;;;5011338;28;20038;-79
2022/09/28 01:17:00;;;;;;;12.88;8.63;;;12.00;99.90;;;;;;5009233;28;20123;-79
2022/09/28 01:20:06;;;;;;;12.10;8.80;;;12.00;99.90;;;;;;5012116;28;20050;-79
2022/09/28 01:23:01;;;;;;;11.68;8.05;;;12.00;99.90;;;;;;4965385;28;20515;-79
2022/09/28 01:25:36;;;;;;;12.77;8.35;;;12.00;99.90;;;;;;4991084;28;20058;-79
2022/09/28 01:28:05;;;;;;;11.48;7.63;;;12.00;99.90;;;;;;5010787;28;20451;-79
2022/09/28 01:30:39;;;;;;;12.43;7.88;;;11.90;99.90;;;;;;5019422;28;20041;-79
2022/09/28 01:33:10;;;;;;;12.82;8.25;;;11.90;99.90;;;;;;5009925;28;20096;-79
2022/09/28 01:35:42;;;;;;;14.98;8.75;;;11.90;99.90;;;;;;5008833;28;20060;-79
2022/09/28 01:38:09;;;;;;;;;;;11.90;99.90;;;;;;5009432;28;20064;-79
2022/09/28 01:40:37;;;;;;;12.60;8.38;;;11.80;99.90;;;;;;5019662;28;20428;-79
2022/09/28 01:43:08;;;;;;;14.43;8.65;;;11.80;99.90;;;;;;5011724;28;20125;-79
2022/09/28 01:45:40;;;;;;;13.63;9.60;;;11.80;99.90;;;;;;5017934;28;20479;-79
2022/09/28 01:48:08;;;;;;;14.93;9.65;;;11.80;99.90;;;;;;4993966;28;20062;-79
2022/09/28 01:50:37;;;;;;;13.57;9.32;;;11.80;99.90;;;;;;5019331;28;20100;-79
2022/09/28 01:53:08;;;;;;;14.38;9.27;;;11.80;99.90;;;;;;5011124;28;20042;-79
2022/09/28 01:55:39;;;;;;;16.70;10.30;;;11.70;99.90;;;;;;5008338;28;20050;-79
2022/09/28 01:58:13;;;;;;;16.85;10.57;;;11.70;99.90;;;;;;5009637;28;20049;-79
2022/09/28 02:00:43;;;;;;;18.55;12.38;;;11.70;99.90;;;;;;5019442;28;20128;-79
2022/09/28 02:03:15;;;;;;;19.10;11.63;;;11.80;99.90;;;;;;5010492;28;20792;-79
2022/09/28 02:05:47;;;;;;;17.98;12.50;;;11.70;99.90;;;;;;5016225;28;20449;-79
2022/09/28 02:08:18;;;;;;;21.23;13.23;;;11.70;99.90;;;;;;5012130;28;20057;-79
2022/09/28 02:10:49;;;;;;;19.92;13.30;;;11.70;99.90;;;;;;5020638;28;20049;-79
2022/09/28 02:13:22;;;;;;;21.15;13.80;;;11.80;99.90;;;;;;5012979;28;20042;-79
2022/09/28 02:15:52;;;;;;;19.58;14.05;;;11.80;99.90;;;;;;5007468;28;20062;-80
2022/09/28 02:18:19;;;;;;;22.10;13.88;;;11.80;99.90;;;;;;5009862;28;20414;-79
2022/09/28 02:20:52;;;;;;;20.98;13.73;;;11.80;99.90;;;;;;5018120;28;20049;-79
2022/09/28 02:23:22;;;;;;;19.23;13.63;;;11.80;99.90;;;;;;5020252;28;20041;-79
2022/09/28 02:25:51;;;;;;;20.55;13.93;;;11.80;99.90;;;;;;5020927;28;20403;-79
2022/09/28 02:28:21;;;;;;;19.58;13.60;;;11.80;99.90;;;;;;5007273;28;20078;-79
2022/09/28 02:30:50;;;;;;;21.70;14.43;;;11.80;99.90;;;;;;5014413;28;20069;-79
2022/09/28 02:33:20;;;;;;;23.98;13.82;;;11.80;99.90;;;;;;5019522;28;20036;-79
2022/09/28 02:35:47;;;;;;;20.15;13.63;;;11.80;99.90;;;;;;5022278;28;20049;-79
2022/09/28 02:38:15;;;;;;;21.15;14.32;;;11.80;99.90;;;;;;5006406;28;20057;-79
2022/09/28 02:40:46;;;;;;;19.55;13.23;;;11.80;99.90;;;;;;5016529;28;20046;-79
2022/09/28 02:43:16;;;;;;;21.15;13.88;;;11.80;99.90;;;;;;5008691;28;20049;-79
2022/09/28 02:45:57;;;;;;;27.43;14.23;;;11.80;99.90;;;;;;5007069;28;20060;-79
2022/09/28 02:48:51;;;;;;;23.00;14.18;;;11.80;99.90;;;;;;5012186;28;20045;-79
2022/09/28 02:51:24;;;;;;;23.20;14.00;;;11.80;99.90;;;;;;5009772;28;20137;-79
2022/09/28 02:54:02;;;;;;;19.75;14.18;;;11.80;99.90;;;;;;5008641;28;20052;-79
2022/09/28 02:56:46;;;;;;;21.77;13.73;;;11.80;99.90;;;;;;5000845;28;20061;-79
2022/09/28 02:59:19;;;;;;;20.80;14.65;;;11.80;99.90;;;;;;5018247;28;20425;-78
2022/09/28 03:01:53;;;;;;;23.80;16.08;;;11.80;99.90;;;;;;5009120;28;20429;-80
2022/09/28 03:04:28;;;;;;;23.73;15.57;;;11.80;99.90;;;;;;5008085;28;20055;-79
2022/09/28 03:06:59;;;;;;;26.65;16.33;;;11.80;99.90;;;;;;5005656;28;20061;-79
2022/09/28 03:09:30;;;;;;;24.10;17.02;;;11.80;99.90;;;;;;5013455;28;20126;-79
2022/09/28 03:11:58;;;;;;;25.75;18.10;;;11.90;99.90;;;;;;5011312;28;20052;-80
2022/09/28 03:14:25;;;;;;;24.77;16.92;;;11.80;99.90;;;;;;5007459;28;20449;-79
2022/09/28 03:16:57;;;;;;;26.65;19.38;;;11.80;99.90;;;;;;5006097;28;20072;-79
2022/09/28 03:19:28;;;;;;;30.52;20.08;;;11.80;99.90;;;;;;5018608;28;20115;-79
2022/09/28 03:21:55;;;;;;;30.25;19.65;;;11.80;99.90;;;;;;5010258;28;20069;-79
2022/09/28 03:24:22;;;;;;;27.33;18.45;;;11.80;99.90;;;;;;5020414;28;20041;-79
2022/09/28 03:26:48;;;;;;;28.52;19.85;;;11.70;99.90;;;;;;5014806;28;20506;-79
2022/09/28 03:29:16;;;;;;;27.73;19.17;;;11.70;99.90;;;;;;5015500;28;20045;-79
2022/09/28 03:31:46;;;;;;;28.73;19.48;;;11.70;99.90;;;;;;5012008;28;20081;-79
2022/09/28 03:34:15;;;;;;;36.05;20.33;;;11.70;99.90;;;;;;5007845;28;20046;-79
2022/09/28 03:36:42;;;;;;;29.83;20.10;;;11.70;99.90;;;;;;5010658;28;20041;-79
2022/09/28 03:39:09;;;;;;;31.42;19.58;;;11.70;99.90;;;;;;5018230;28;20048;-79
2022/09/28 03:41:37;;;;;;;28.27;19.13;;;11.70;99.90;;;;;;5010002;28;20380;-79
2022/09/28 03:44:04;;;;;;;29.70;19.10;;;11.70;99.90;;;;;;5008681;28;20093;-79
2022/09/28 03:46:33;;;;;;;28.67;19.55;;;11.60;99.90;;;;;;5010667;28;20133;-79
2022/09/28 03:49:05;;;;;;;30.05;19.95;;;11.60;99.90;;;;;;5021204;28;20587;-79
2022/09/28 03:51:33;;;;;;;27.98;19.38;;;11.60;99.90;;;;;;5017972;28;20063;-80
2022/09/28 03:54:00;;;;;;;29.85;20.00;;;11.60;99.90;;;;;;5012072;28;20038;-80
2022/09/28 03:56:27;;;;;;;32.30;21.52;;;11.60;99.90;;;;;;5013733;28;20045;-83
2022/09/28 03:58:54;;;;;;;33.17;21.75;;;11.60;99.90;;;;;;5023108;28;20054;-81
2022/09/28 04:01:21;;;;;;;33.97;22.05;;;11.60;99.90;;;;;;5023435;28;20542;-81
2022/09/28 04:03:47;;;;;;;31.00;21.05;;;11.60;99.90;;;;;;5011534;28;20038;-83
2022/09/28 04:06:15;;;;;;;33.13;22.45;;;11.60;99.90;;;;;;5012596;28;20567;-85
2022/09/28 04:08:43;;;;;;;33.58;21.23;;;11.60;99.90;;;;;;5023130;28;20059;-85
2022/09/28 04:11:10;;;;;;;31.30;21.30;;;11.70;99.90;;;;;;5031574;28;20048;-85
2022/09/28 04:13:37;;;;;;;35.40;21.17;;;11.60;99.90;;;;;;5015016;28;20470;-86
2022/09/28 04:16:06;;;;;;;32.72;21.42;;;11.60;99.90;;;;;;5011143;28;20407;-85
2022/09/28 04:18:35;;;;;;;29.45;20.63;;;11.60;99.90;;;;;;5026590;28;20049;-85
2022/09/28 04:21:07;;;;;;;32.13;20.83;;;11.60;99.90;;;;;;5031746;28;20140;-82
2022/09/28 04:23:40;;;;;;;31.42;21.02;;;11.60;99.90;;;;;;5019285;28;20149;-84
2022/09/28 04:26:15;;;;;;;30.60;19.05;;;11.60;99.90;;;;;;5024281;28;20064;-85
2022/09/28 04:31:27;;;;;;;26.95;18.85;;;11.60;99.90;;;;;;5012795;28;20081;-84
2022/09/28 04:33:54;;;;;;;25.05;18.90;;;11.60;99.90;;;;;;5011641;28;20041;-84
2022/09/28 04:36:21;;;;;;;27.08;18.42;;;11.70;99.90;;;;;;5012634;28;20060;-85
2022/09/28 04:38:47;;;;;;;26.63;18.90;;;11.70;99.90;;;;;;5019068;28;20061;-79
2022/09/28 04:41:16;;;;;;;28.85;18.95;;;11.60;99.90;;;;;;5008860;28;20417;-86
2022/09/28 04:43:43;;;;;;;27.42;18.50;;;11.60;99.90;;;;;;5010902;28;20559;-81
2022/09/28 04:46:10;;;;;;;26.70;20.17;;;11.60;99.90;;;;;;5007185;28;20102;-80
2022/09/28 04:48:43;;;;;;;29.48;19.63;;;11.60;99.90;;;;;;5017375;28;20390;-81
2022/09/28 04:51:39;;;;;;;31.95;19.10;;;11.60;99.90;;;;;;5017402;28;20406;-80
2022/09/28 04:54:06;;;;;;;28.17;19.92;;;11.70;99.90;;;;;;5018119;28;20137;-80
2022/09/28 04:56:35;;;;;;;28.67;18.88;;;11.60;99.90;;;;;;5005593;28;20038;-80
2022/09/28 04:59:01;;;;;;;26.60;19.08;;;11.60;99.90;;;;;;5016083;28;20053;-80
2022/09/28 05:01:30;;;;;;;27.75;19.88;;;11.60;99.90;;;;;;5010576;28;20704;-80
2022/09/28 05:03:59;;;;;;;32.42;21.45;;;11.60;99.90;;;;;;5011056;28;20054;-80
2022/09/28 05:06:38;;;;;;;28.55;20.25;;;11.60;99.90;;;;;;5023618;28;20046;-80
2022/09/28 05:09:08;;;;;;;31.27;20.60;;;11.60;99.90;;;;;;5021578;28;20053;-80
2022/09/28 05:11:36;;;;;;;30.73;20.63;;;11.70;99.90;;;;;;5024600;28;20128;-80
2022/09/28 05:14:06;;;;;;;29.10;20.90;;;11.60;99.90;;;;;;5018568;28;20141;-80
2022/09/28 05:16:34;;;;;;;29.55;20.30;;;11.60;99.90;;;;;;5000819;28;20401;-80
2022/09/28 05:19:30;;;;;;;30.70;21.13;;;11.60;99.90;;;;;;5015339;28;20057;-80
2022/09/28 05:22:03;;;;;;;35.05;20.60;;;11.60;99.90;;;;;;5018006;28;20050;-80
2022/09/28 05:24:34;;;;;;;29.25;19.95;;;11.70;99.90;;;;;;5020522;28;20037;-80
2022/09/28 05:27:02;;;;;;;30.73;21.45;;;11.60;99.90;;;;;;5026511;28;20072;-80
2022/09/28 05:29:30;;;;;;;32.90;21.60;;;11.60;99.90;;;;;;5022417;28;20069;-80
2022/09/28 05:32:16;;;;;;;32.00;21.40;;;11.60;99.90;;;;;;5019135;28;20531;-80
2022/09/28 05:35:04;;;;;;;33.08;22.05;;;11.60;99.90;;;;;;4991288;28;20182;-80
2022/09/28 05:37:39;;;;;;;33.72;22.02;;;11.60;99.90;;;;;;5012345;28;20391;-81
2022/09/28 05:40:07;;;;;;;33.55;22.90;;;11.70;99.90;;;;;;5027941;28;20510;-81
2022/09/28 05:42:36;;;;;;;33.38;22.50;;;11.60;99.90;;;;;;5021075;28;20129;-81
2022/09/28 05:45:03;;;;;;;35.70;22.50;;;11.70;99.90;;;;;;5026548;28;20072;-81
2022/09/28 05:47:30;;;;;;;35.13;23.67;;;11.70;99.90;;;;;;5020372;28;20045;-81
2022/09/28 05:49:57;;;;;;;33.70;22.25;;;11.60;99.90;;;;;;5022487;28;20044;-81
2022/09/28 05:52:23;;;;;;;34.47;22.95;;;11.70;99.90;;;;;;5007090;28;20073;-80
2022/09/28 05:54:50;;;;;;;32.67;22.38;;;11.60;99.90;;;;;;4997351;28;20042;-80
2022/09/28 05:57:17;;;;;;;41.67;24.55;;;11.70;99.90;;;;;;5017658;28;20149;-80
2022/09/28 05:59:46;;;;;;;34.10;23.60;;;11.70;99.90;;;;;;5008215;28;20137;-80
2022/09/28 06:02:12;;;;;;;38.28;23.45;;;11.70;99.90;;;;;;5020027;28;20054;-81
2022/09/28 06:04:39;;;;;;;33.67;23.35;;;11.70;99.90;;;;;;5027608;28;20930;-80
2022/09/28 06:07:06;;;;;;;35.67;23.88;;;11.70;99.90;;;;;;5022306;28;20049;-81
2022/09/28 06:09:34;;;;;;;34.60;23.50;;;11.70;99.90;;;;;;5032996;23;20045;-82
2022/09/28 06:12:10;;;;;;;37.10;24.38;;;11.70;99.90;;;;;;5050114;28;20048;-82
2022/09/28 06:14:48;;;;;;;42.17;24.15;;;11.70;99.90;;;;;;5029704;28;20057;-82
2022/09/28 06:17:15;;;;;;;34.83;24.00;;;11.70;99.90;;;;;;5032024;28;20122;-82
2022/09/28 06:19:45;;;;;;;34.13;23.05;;;11.70;99.90;;;;;;5027131;28;20091;-82
2022/09/28 06:22:44;;;;;;;31.65;22.45;;;11.70;99.90;;;;;;5021204;28;20040;-82
2022/09/28 06:25:12;;;;;;;35.55;22.55;;;11.70;99.90;;;;;;5024578;28;20799;-82
2022/09/28 06:27:41;;;;;;;35.50;23.58;;;11.70;99.90;;;;;;5031583;28;20079;-83
2022/09/28 06:30:10;;;;;;;33.70;23.17;;;11.70;99.90;;;;;;5029657;28;20095;-82
2022/09/28 06:32:39;;;;;;;31.73;22.25;;;11.70;99.90;;;;;;5031925;28;20049;-82
2022/09/28 06:35:08;;;;;;;33.53;22.70;;;11.70;99.90;;;;;;5031204;28;20053;-82
2022/09/28 06:37:35;;;;;;;39.35;24.83;;;11.70;99.90;;;;;;5031728;28;20037;-82
2022/09/28 06:40:03;;;;;;;34.97;23.45;;;11.70;99.90;;;;;;5026391;28;20751;-82
2022/09/28 06:42:31;;;;;;;34.90;23.98;;;11.70;99.90;;;;;;5031719;28;20045;-82
2022/09/28 06:45:24;;;;;;;33.90;22.92;;;11.80;99.90;;;;;;5048373;28;20508;-82
2022/09/28 06:48:15;;;;;;;35.45;23.10;;;11.80;99.90;;;;;;5010854;28;20132;-83
2022/09/28 06:50:42;;;;;;;34.05;23.80;;;11.80;99.90;;;;;;5031399;28;20040;-82
2022/09/28 06:53:32;;;;;;;30.98;22.33;;;11.80;99.90;;;;;;5016347;28;20053;-82
2022/09/28 06:56:10;;;;;;;31.88;22.55;;;12.00;99.90;;;;;;5010960;28;20274;-82
2022/09/28 06:58:37;;;;;;;34.90;23.08;;;11.80;99.90;;;;;;5016326;28;20481;-82
2022/09/28 07:01:06;;;;;;;35.15;22.48;;;11.80;99.90;;;;;;5028914;28;20048;-82
2022/09/28 07:03:53;;;;;;;33.47;22.10;;;11.80;99.90;;;;;;5038106;28;20053;-82
2022/09/28 07:06:39;;;;;;;31.10;22.02;;;11.90;99.90;;;;;;5048931;28;20056;-82
2022/09/28 07:09:32;;;;;;;31.00;21.00;;;11.90;99.90;;;;;;5040462;28;20041;-82
2022/09/28 07:12:29;;;;;;;30.45;20.08;;;12.00;99.90;;;;;;5011865;28;20104;-82
2022/09/28 07:15:04;;;;;;;26.13;18.98;;;11.80;99.90;;;;;;5034404;28;20037;-82
2022/09/28 07:17:34;;;;;;;28.95;18.60;;;11.90;99.90;;;;;;5029936;28;20048;-82
2022/09/28 07:20:05;;;;;;;22.88;16.45;;;11.90;99.90;;;;;;5031083;28;20053;-82
2022/09/28 07:22:32;;;;;;;22.65;15.35;;;11.90;99.90;;;;;;5031200;28;20057;-82
2022/09/28 07:25:01;;;;;;;24.30;16.60;;;11.90;99.90;;;;;;5030345;28;20041;-82
2022/09/28 07:27:59;;;;;;;22.58;16.00;;;11.90;99.90;;;;;;5024267;28;20049;-82
2022/09/28 07:30:36;;;;;;;24.13;17.65;;;11.80;99.90;;;;;;5031018;28;20052;-82
2022/09/28 07:33:17;;;;;;;25.25;17.75;;;11.90;99.90;;;;;;5031056;28;20041;-82
2022/09/28 07:35:53;;;;;;;29.35;18.35;;;11.90;99.90;;;;;;5030488;28;20048;-82
2022/09/28 07:38:22;;;;;;;25.17;18.13;;;11.90;99.90;;;;;;5026648;28;20048;-82
2022/09/28 07:43:34;;;;;;;31.05;21.08;;;11.90;99.90;;;;;;5031321;28;20048;-83
2022/09/28 07:46:01;;;;;;;26.38;19.50;;;11.90;99.90;;;;;;5030147;28;20137;-82
2022/09/28 07:48:36;;;;;;;26.42;19.70;;;12.00;99.90;;;;;;5030168;28;20076;-82
2022/09/28 07:51:21;;;;;;;28.40;20.20;;;11.90;99.90;;;;;;5041208;28;20056;-82
2022/09/28 07:54:15;;;;;;;25.58;17.67;;;12.00;99.90;;;;;;5017538;28;20053;-82
2022/09/28 07:57:00;;;;;;;29.67;19.05;;;12.00;99.90;;;;;;5048790;28;20053;-82
2022/09/28 07:59:39;;;;;;;30.60;19.30;;;12.00;99.90;;;;;;5029105;28;20068;-83
2022/09/28 08:02:25;;;;;;;28.77;19.63;;;12.00;99.90;;;;;;5029231;28;20056;-82
2022/09/28 08:04:55;;;;;;;26.30;18.88;;;12.00;99.90;;;;;;5029178;28;20056;-83
2022/09/28 08:07:24;;;;;;;33.70;21.00;;;12.10;99.90;;;;;;5010839;28;20588;-82
2022/09/28 08:09:59;;;;;;;30.13;20.98;;;12.00;99.90;;;;;;5026542;28;20052;-82
2022/09/28 08:12:29;;;;;;;33.60;23.38;;;12.00;99.90;;;;;;5038364;28;20052;-82
2022/09/28 08:15:14;;;;;;;34.78;22.35;;;12.00;99.90;;;;;;5044083;28;20561;-82
2022/09/28 08:17:57;;;;;;;36.80;23.63;;;12.00;99.90;;;;;;5026745;28;20057;-82
2022/09/28 08:23:11;;;;;;;34.53;23.50;;;12.00;99.90;;;;;;5021581;28;20103;-83
2022/09/28 08:25:40;;;;;;;38.67;22.77;;;12.00;99.90;;;;;;5027085;28;20045;-82
2022/09/28 08:28:07;;;;;;;32.45;21.98;;;12.10;99.90;;;;;;5030087;28;20043;-82
2022/09/28 08:30:40;;;;;;;33.40;21.20;;;12.10;99.90;;;;;;5029795;28;20051;-82
2022/09/28 08:33:20;;;;;;;30.17;20.70;;;12.10;99.90;;;;;;5049687;28;20069;-82
2022/09/28 08:36:09;;;;;;;35.75;21.70;;;12.10;99.90;;;;;;5048984;28;20047;-82
2022/09/28 08:38:55;;;;;;;29.63;21.70;;;12.10;99.90;;;;;;5050466;28;20110;-82
2022/09/28 08:41:48;;;;;;;28.73;20.52;;;12.20;99.90;;;;;;5006658;28;20045;-82
2022/09/28 08:44:37;;;;;;;36.58;21.38;;;12.20;99.90;;;;;;5046554;28;20136;-81
2022/09/28 08:50:32;;;;;;;38.25;23.70;;;12.30;99.90;;;;;;5034658;28;20124;-82
2022/09/28 08:53:15;;;;;;;32.50;22.50;;;12.30;99.90;;;;;;5026590;28;20049;-82
2022/09/28 08:55:54;;;;;;;35.58;23.67;;;12.30;99.90;;;;;;5031014;28;20052;-82
2022/09/28 08:58:27;;;;;;;35.50;24.73;;;12.40;99.90;;;;;;5018663;28;20050;-82
2022/09/28 09:00:54;;;;;;;35.75;24.75;;;12.40;99.90;;;;;;5026254;28;20137;-82
2022/09/28 09:03:30;;;;;;;40.33;25.60;;;12.30;99.90;;;;;;5029772;28;20041;-82
2022/09/28 09:06:20;;;;;;;34.97;24.83;;;12.40;99.90;;;;;;5019999;28;20622;-82
2022/09/28 09:09:02;;;;;;;34.45;23.63;;;12.40;99.90;;;;;;5033063;28;20596;-81
2022/09/28 09:11:43;;;;;;;27.92;21.27;;;12.40;99.90;;;;;;5031316;28;20052;-83
2022/09/28 09:14:27;;;;;;;30.87;23.23;;;12.50;99.90;;;;;;5024414;28;20135;-84
2022/09/28 09:17:01;;;;;;;28.40;20.90;;;12.50;99.90;;;;;;5029848;28;20049;-83
2022/09/28 09:19:52;;;;;;;24.85;20.00;;;12.50;99.90;;;;;;5050529;28;20052;-83
2022/09/28 09:22:58;;;;;;;28.35;20.27;;;12.60;99.90;;;;;;5042187;28;20049;-83
2022/09/28 09:25:29;;;;;;;29.08;19.95;;;12.60;99.90;;;;;;5041373;28;20045;-81
2022/09/28 09:28:17;;;;;;;24.92;19.08;;;12.60;99.90;;;;;;5029461;28;20053;-81
2022/09/28 09:30:51;;;;;;;27.00;18.15;;;12.60;99.90;;;;;;5020017;28;20973;-81
2022/09/28 09:33:42;;;;;;;24.80;17.83;;;12.70;99.90;;;;;;5030007;28;20048;-82
2022/09/28 09:36:38;;;;;;;22.40;16.27;;;12.70;99.90;;;;;;5049294;28;20056;-82
2022/09/28 09:39:37;;;;;;;19.85;15.18;;;12.70;99.90;;;;;;5027931;28;20052;-82
2022/09/28 09:42:36;;;;;;;20.33;15.90;;;12.80;99.90;;;;;;5051809;28;20170;-82
2022/09/28 09:45:31;;;;;;;17.23;13.40;;;12.80;99.90;;;;;;4985433;28;20055;-83
2022/09/28 09:48:17;;;;;;;18.20;13.27;;;12.90;99.90;;;;;;5030759;28;20182;-82
2022/09/28 09:50:48;;;;;;;16.13;13.20;;;12.90;99.90;;;;;;5031820;28;20563;-82
2022/09/28 09:53:19;;;;;;;16.67;13.75;;;13.00;99.90;;;;;;5027854;28;20057;-82
2022/09/28 09:55:49;;;;;;;16.08;11.73;;;13.10;99.90;;;;;;5028241;28;20049;-83
2022/09/28 09:58:33;;;;;;;16.88;12.80;;;13.10;99.90;;;;;;5044611;28;20412;-83
2022/09/28 10:01:09;;;;;;;17.63;12.30;;;13.30;99.90;;;;;;5030842;28;20040;-83
2022/09/28 10:04:17;;;;;;;16.27;11.50;;;13.20;99.90;;;;;;5028344;28;20041;-83
2022/09/28 10:06:45;;;;;;;16.73;11.98;;;13.20;99.90;;;;;;5046523;28;20040;-82
2022/09/28 10:09:23;;;;;;;13.10;10.43;;;13.20;99.90;;;;;;5048533;28;20055;-83
2022/09/28 10:11:51;;;;;;;13.27;10.90;;;13.20;99.90;;;;;;5031356;28;20845;-83
2022/09/28 10:14:21;;;;;;;14.80;12.23;;;13.20;99.90;;;;;;5030264;28;20536;-83
2022/09/28 10:17:10;;;;;;;13.95;11.00;;;13.20;99.90;;;;;;5044089;28;20045;-83
2022/09/28 10:19:57;;;;;;;13.15;10.73;;;13.20;99.90;;;;;;5043977;28;20055;-83
2022/09/28 10:23:05;;;;;;;17.30;10.52;;;13.20;99.90;;;;;;5028698;28;20091;-83
2022/09/28 10:25:36;;;;;;;16.20;10.63;;;13.20;99.90;;;;;;5029903;28;20037;-83
2022/09/28 10:28:05;;;;;;;17.58;10.30;;;13.20;99.90;;;;;;5030600;28;20425;-83
2022/09/28 10:30:43;;;;;;;14.45;10.05;;;13.20;99.90;;;;;;5048675;28;20048;-83
2022/09/28 10:33:27;;;;;;;14.48;9.95;;;13.20;99.90;;;;;;5030644;28;20497;-83
2022/09/28 10:35:54;;;;;;;15.45;10.50;;;13.20;99.90;;;;;;5030161;28;20045;-83
2022/09/28 10:38:23;;;;;;;13.98;9.77;;;13.20;99.90;;;;;;5030424;28;20716;-83
2022/09/28 10:40:59;;;;;;;12.85;9.90;;;13.20;99.90;;;;;;5028008;28;20119;-84
2022/09/28 10:44:04;;;;;;;16.23;10.75;;;13.20;99.90;;;;;;5049784;28;20179;-83
2022/09/28 10:46:37;;;;;;;;;;;13.30;99.90;;;;;;5038743;28;20049;-83
2022/09/28 10:49:15;;;;;;;17.35;10.88;;;13.30;99.90;;;;;;5031660;28;19924;-83
2022/09/28 10:51:45;;;;;;;14.63;10.00;;;13.30;99.90;;;;;;5031410;28;20056;-83
2022/09/28 10:54:18;;;;;;;13.77;10.05;;;13.40;99.90;;;;;;5030859;28;20128;-83
2022/09/28 10:56:48;;;;;;;15.93;8.83;;;13.40;99.90;;;;;;5029123;28;20532;-83
2022/09/28 10:59:39;;;;;;;9.68;7.80;;;13.40;99.90;;;;;;5031591;28;20044;-83
2022/09/28 11:02:28;;;;;;;10.43;7.30;;;13.40;99.90;;;;;;5044620;28;20175;-83
2022/09/28 11:05:02;;;;;;;9.23;6.18;;;13.50;99.90;;;;;;5030466;28;20532;-83
2022/09/28 11:07:45;;;;;;;9.13;6.55;;;13.50;99.90;;;;;;5029580;28;20126;-83
2022/09/28 11:10:20;;;;;;;8.38;6.43;;;13.50;99.90;;;;;;5028311;28;20044;-83
2022/09/28 11:12:49;;;;;;;8.95;6.32;;;13.60;99.90;;;;;;5043221;28;20045;-83
2022/09/28 11:15:20;;;;;;;12.35;6.25;;;13.60;99.90;;;;;;5026335;28;20128;-83
2022/09/28 11:17:50;;;;;;;10.70;7.22;;;13.60;99.90;;;;;;5019414;28;20049;-83
2022/09/28 11:20:39;;;;;;;11.93;7.45;;;13.60;99.90;;;;;;5029369;28;20045;-83
2022/09/28 11:23:22;;;;;;;10.85;7.00;;;13.60;99.90;;;;;;5030536;28;20049;-83
2022/09/28 11:26:00;;;;;;;10.52;5.70;;;13.60;99.90;;;;;;5026602;28;20056;-83
2022/09/28 11:28:31;;;;;;;10.23;5.95;;;13.60;99.90;;;;;;5030814;28;20048;-83
2022/09/28 11:31:00;;;;;;;9.25;5.55;;;13.60;99.90;;;;;;5038184;28;20792;-83
2022/09/28 11:33:33;;;;;;;11.05;5.82;;;13.60;99.90;;;;;;5031083;28;20062;-81
2022/09/28 11:36:22;;;;;;;8.88;5.25;;;13.60;99.90;;;;;;5048288;28;20116;-81
2022/09/28 11:38:56;;;;;;;11.20;5.70;;;13.60;99.90;;;;;;5030878;28;20058;-82
2022/09/28 11:41:45;;;;;;;9.55;6.30;;;13.60;99.90;;;;;;5031010;28;20555;-82
2022/09/28 11:44:25;;;;;;;11.63;6.43;;;13.70;99.90;;;;;;5030464;28;20098;-81
2022/09/28 11:47:24;;;;;;;11.90;6.03;;;13.70;99.90;;;;;;5024495;28;20502;-81
2022/09/28 11:49:57;;;;;;;8.60;6.18;;;13.70;99.90;;;;;;5018638;28;20427;-81
2022/09/28 11:52:28;;;;;;;9.60;7.07;;;13.70;99.90;;;;;;5028708;28;20528;-81
2022/09/28 11:54:58;;;;;;;9.60;6.53;;;13.80;99.90;;;;;;5033869;28;20045;-81
2022/09/28 11:57:27;;;;;;;12.77;6.65;;;13.80;99.90;;;;;;5034694;28;20041;-82
2022/09/28 11:59:57;;;;;;;10.23;6.80;;;13.70;99.90;;;;;;5027148;28;20128;-82
2022/09/28 12:02:27;;;;;;;11.43;7.85;;;13.70;99.90;;;;;;5028984;28;20084;-82
2022/09/28 12:05:08;;;;;;;12.02;9.27;;;13.70;99.90;;;;;;5032378;28;20045;-82
2022/09/28 12:07:37;;;;;;;17.20;8.93;;;13.70;99.90;;;;;;5015174;28;20103;-81
2022/09/28 12:10:13;;;;;;;14.13;8.85;;;13.70;99.90;;;;;;5039873;22;20136;-84
2022/09/28 12:12:46;;;;;;;12.15;9.38;;;13.70;99.90;;;;;;5021437;28;20394;-84
2022/09/28 12:15:16;;;;;;;14.68;9.73;;;13.70;99.90;;;;;;5017874;28;20051;-84
2022/09/28 12:17:46;;;;;;;14.25;9.10;;;13.70;99.90;;;;;;5026796;28;20041;-84
2022/09/28 12:20:19;;;;;;;11.73;8.50;;;13.70;99.90;;;;;;5016218;28;20058;-84
2022/09/28 12:22:50;;;;;;;13.55;9.02;;;13.70;99.90;;;;;;5005029;28;20046;-84
2022/09/28 12:25:20;;;;;;;9.13;8.00;;;13.70;99.90;;;;;;5012066;28;20073;-84
2022/09/28 12:27:51;;;;;;;14.27;8.63;;;13.70;99.90;;;;;;5003639;28;20053;-84
2022/09/28 12:30:19;;;;;;;12.00;8.15;;;13.70;99.90;;;;;;5015394;28;20494;-84
2022/09/28 12:32:53;;;;;;;14.15;8.63;;;13.70;99.90;;;;;;5007917;28;20053;-84
2022/09/28 12:35:27;;;;;;;11.18;7.82;;;13.80;99.90;;;;;;5010585;28;20792;-84
2022/09/28 12:38:15;;;;;;;13.40;8.00;;;13.90;99.90;;;;;;4994951;28;20060;-84
2022/09/28 12:40:49;;;;;;;10.30;7.30;;;13.90;99.90;;;;;;5012655;28;20049;-85
2022/09/28 12:43:33;;;;;;;10.43;8.02;;;13.90;99.90;;;;;;5012146;28;20048;-84
2022/09/28 12:46:22;;;;;;;8.93;7.32;;;13.90;99.90;;;;;;5011446;28;20069;-84
2022/09/28 12:49:01;;;;;;;9.25;7.18;;;13.90;99.90;;;;;;5015852;28;20056;-84
2022/09/28 12:51:40;;;;;;;9.07;6.90;;;14.00;99.90;;;;;;5009637;28;20056;-84
2022/09/28 12:54:15;;;;;;;12.73;6.93;;;14.00;99.90;;;;;;5014962;28;20081;-84
2022/09/28 12:57:00;;;;;;;10.45;7.40;;;14.00;99.90;;;;;;5026686;28;20055;-84
2022/09/28 12:59:31;;;;;;;10.68;7.30;;;14.00;99.90;;;;;;5016073;28;20042;-84
2022/09/28 13:02:20;;;;;;;12.40;6.72;;;14.00;99.90;;;;;;5011125;28;20050;-84
2022/09/28 13:05:00;;;;;;;9.90;6.07;;;14.00;99.90;;;;;;4994207;28;20081;-84
2022/09/28 13:07:32;;;;;;;8.27;5.82;;;14.00;99.90;;;;;;5003852;28;20128;-85
2022/09/28 13:10:09;;;;;;;7.03;4.88;;;14.00;99.90;;;;;;5006040;28;20045;-85
2022/09/28 13:12:51;;;;;;;8.18;4.28;;;14.00;99.90;;;;;;5008817;28;20041;-86
2022/09/28 13:15:34;;;;;;;10.23;5.05;;;14.10;99.90;;;;;;5007985;28;20562;-82
2022/09/28 13:18:08;;;;;;;6.22;4.47;;;14.10;99.90;;;;;;5003736;28;20041;-84
2022/09/28 13:20:43;;;;;;;7.88;5.05;;;14.10;99.90;;;;;;4984298;28;20065;-85
2022/09/28 13:23:19;;;;;;;10.05;5.20;;;14.10;99.90;;;;;;4984031;28;20049;-87